Time;durP1;ratioP1;P1;durP2;ratioP2;P2;SDS_P1;SDS_P2;PMS_P1;PMS_P2;Temp;Humidity;BMP_temperature;BMP_pressure;BME280_temperature;BME280_humidity;BME280_pressure;Samples;Min_cycle;Max_cycle;Signal;HPM_P1;HPM_P2
2021/12/27 00:00:43;;;;;;;80.07;55.38;;;-0.60;90.20;;;;;;6100471;23;20368;-83
2021/12/27 00:03:11;;;;;;;76.97;53.47;;;-0.70;90.00;;;;;;6101282;23;20381;-82
2021/12/27 00:05:38;;;;;;;85.15;59.72;;;-0.70;90.40;;;;;;6099975;23;20379;-86
2021/12/27 00:08:05;;;;;;;59.75;46.50;;;-0.70;90.60;;;;;;6128198;23;20376;-85
2021/12/27 00:10:32;;;;;;;58.05;43.17;;;-0.80;91.10;;;;;;6103389;23;20392;-83
2021/12/27 00:12:59;;;;;;;54.92;40.85;;;-0.90;90.70;;;;;;6101390;23;20820;-82
2021/12/27 00:15:26;;;;;;;54.50;41.80;;;-0.90;90.60;;;;;;6100459;23;20379;-85
2021/12/27 00:17:53;;;;;;;56.03;42.40;;;-0.90;90.60;;;;;;6101330;23;20387;-86
2021/12/27 00:20:21;;;;;;;49.13;38.75;;;-0.90;90.70;;;;;;6100466;23;20384;-86
2021/12/27 00:22:50;;;;;;;44.92;36.22;;;-0.90;90.70;;;;;;6102287;23;20384;-83
2021/12/27 00:25:17;;;;;;;48.35;37.25;;;-1.00;90.50;;;;;;6100618;23;20380;-85
2021/12/27 00:27:45;;;;;;;47.22;37.97;;;-1.00;90.60;;;;;;6101135;23;20840;-86
2021/12/27 00:30:13;;;;;;;47.75;38.05;;;-1.00;90.50;;;;;;6098419;23;20926;-84
2021/12/27 00:32:43;;;;;;;47.88;37.65;;;-0.90;90.50;;;;;;6072375;23;20436;-85
2021/12/27 00:35:12;;;;;;;49.28;38.92;;;-1.00;90.50;;;;;;6076304;23;20400;-83
2021/12/27 00:37:39;;;;;;;50.20;37.92;;;-1.00;91.10;;;;;;6097785;23;20440;-82
2021/12/27 00:40:09;;;;;;;51.70;39.92;;;-1.00;90.70;;;;;;6070839;23;20429;-82
2021/12/27 00:42:37;;;;;;;55.80;41.47;;;-1.00;90.60;;;;;;6073266;23;20409;-81
2021/12/27 00:45:05;;;;;;;51.83;40.17;;;-1.00;90.70;;;;;;6074712;23;20381;-83
2021/12/27 00:47:32;;;;;;;51.72;39.35;;;-1.00;90.60;;;;;;6073025;23;20387;-80
2021/12/27 00:49:59;;;;;;;50.83;40.05;;;-1.00;90.40;;;;;;6074724;23;20362;-82
2021/12/27 00:52:26;;;;;;;51.10;38.50;;;-1.00;90.40;;;;;;6073870;23;20856;-84
2021/12/27 00:54:53;;;;;;;54.92;41.10;;;-1.00;90.30;;;;;;6072000;23;20374;-83
2021/12/27 00:57:20;;;;;;;57.10;42.75;;;-1.00;90.30;;;;;;6074618;23;20409;-81
2021/12/27 00:59:47;;;;;;;54.13;40.13;;;-1.00;90.30;;;;;;6074466;23;20382;-83
2021/12/27 01:02:15;;;;;;;50.95;40.03;;;-1.00;90.50;;;;;;6071993;23;20865;-83
2021/12/27 01:04:42;;;;;;;53.25;41.60;;;-1.00;90.50;;;;;;6097390;23;20381;-86
2021/12/27 01:07:09;;;;;;;56.33;41.47;;;-1.00;90.40;;;;;;6072357;23;20373;-83
2021/12/27 01:17:40;;;;;;;70.70;48.53;;;-0.80;91.10;;;;;;6099454;23;20415;-83
2021/12/27 01:20:11;;;;;;;62.78;44.38;;;-0.80;91.00;;;;;;6074572;23;20373;-82
2021/12/27 01:22:39;;;;;;;53.00;40.70;;;-0.80;91.20;;;;;;6071412;23;20420;-82
2021/12/27 01:25:07;;;;;;;52.40;41.00;;;-0.80;91.20;;;;;;6073991;23;20369;-81
2021/12/27 01:27:35;;;;;;;53.78;41.65;;;-0.80;91.10;;;;;;6073534;23;20908;-82
2021/12/27 01:30:05;;;;;;;51.00;37.70;;;-0.70;91.10;;;;;;6073932;23;20381;-83
2021/12/27 01:32:38;;;;;;;46.67;36.35;;;-0.70;91.10;;;;;;6075160;23;20838;-85
2021/12/27 01:35:06;;;;;;;54.58;40.78;;;-0.70;91.10;;;;;;6074211;23;20369;-83
2021/12/27 01:37:33;;;;;;;53.00;41.05;;;-0.70;91.40;;;;;;6073730;23;20869;-83
2021/12/27 01:40:00;;;;;;;54.30;41.95;;;-0.70;91.60;;;;;;6075406;23;20377;-84
2021/12/27 01:42:28;;;;;;;51.87;39.80;;;-0.80;91.90;;;;;;6098200;23;20370;-83
2021/12/27 01:44:55;;;;;;;51.30;39.58;;;-0.80;92.00;;;;;;6071801;23;20445;-85
2021/12/27 01:47:22;;;;;;;50.63;38.90;;;-0.80;91.80;;;;;;6050906;23;20373;-86
2021/12/27 01:49:50;;;;;;;52.72;40.85;;;-0.70;92.40;;;;;;6072899;23;20374;-82
2021/12/27 01:52:16;;;;;;;51.60;40.47;;;-0.60;92.60;;;;;;6077810;23;20389;-81
2021/12/27 01:54:43;;;;;;;51.13;38.97;;;-0.60;92.40;;;;;;6072908;23;20381;-86
2021/12/27 01:57:11;;;;;;;49.17;37.92;;;-0.60;92.10;;;;;;6073086;23;20369;-84
2021/12/27 01:59:38;;;;;;;48.05;38.95;;;-0.50;92.10;;;;;;6073976;23;20381;-84
2021/12/27 02:02:05;;;;;;;48.60;38.50;;;-0.50;91.90;;;;;;6075265;23;20382;-83
2021/12/27 02:04:32;;;;;;;46.65;37.70;;;-0.50;92.00;;;;;;6074801;23;20432;-85
2021/12/27 02:06:59;;;;;;;49.15;38.10;;;-0.50;92.00;;;;;;6071288;23;20381;-84
2021/12/27 02:09:37;;;;;;;47.88;38.20;;;-0.50;91.80;;;;;;6077824;23;20441;-86
2021/12/27 02:12:04;;;;;;;50.00;38.88;;;-0.40;91.80;;;;;;6073642;23;20417;-86
2021/12/27 02:14:31;;;;;;;52.42;40.53;;;-0.40;92.30;;;;;;6074549;23;20381;-84
2021/12/27 02:16:59;;;;;;;50.10;39.22;;;-0.30;92.00;;;;;;6095988;23;20385;-83
2021/12/27 02:19:26;;;;;;;47.40;36.38;;;-0.40;91.80;;;;;;6072443;23;20392;-86
2021/12/27 02:21:56;;;;;;;45.03;37.03;;;-0.40;91.80;;;;;;6048123;23;20492;-84
2021/12/27 02:24:24;;;;;;;52.00;38.45;;;-0.40;91.60;;;;;;6073803;23;20413;-86
2021/12/27 02:26:52;;;;;;;47.47;38.03;;;-0.50;91.40;;;;;;6047795;23;20389;-82
2021/12/27 02:29:19;;;;;;;47.43;37.67;;;-0.60;91.50;;;;;;6071403;23;20438;-84
2021/12/27 02:31:50;;;;;;;44.30;35.08;;;-0.50;91.50;;;;;;6093235;23;20976;-84
2021/12/27 02:34:17;;;;;;;46.72;36.60;;;-0.60;91.50;;;;;;6101042;23;20472;-80
2021/12/27 02:36:48;;;;;;;49.83;38.08;;;-0.60;91.40;;;;;;6101794;23;20408;-84
2021/12/27 02:39:16;;;;;;;49.60;38.65;;;-0.60;91.40;;;;;;6103660;23;20431;-83
2021/12/27 02:41:43;;;;;;;47.65;36.67;;;-0.70;91.70;;;;;;6105394;23;20415;-81
2021/12/27 02:44:10;;;;;;;43.30;34.42;;;-0.70;91.60;;;;;;6103042;23;20379;-84
2021/12/27 02:46:38;;;;;;;45.85;35.33;;;-0.70;91.60;;;;;;6103288;23;20383;-85
2021/12/27 02:49:05;;;;;;;43.28;34.58;;;-0.60;92.00;;;;;;6100419;23;20379;-84
2021/12/27 02:51:32;;;;;;;40.92;32.95;;;-0.60;91.90;;;;;;6099684;23;20379;-84
2021/12/27 02:53:59;;;;;;;43.65;32.72;;;-0.60;91.50;;;;;;6098578;23;20383;-86
2021/12/27 02:56:26;;;;;;;43.35;34.50;;;-0.70;91.40;;;;;;6103876;23;20388;-84
2021/12/27 02:58:53;;;;;;;43.83;34.03;;;-0.70;91.30;;;;;;6127273;23;20387;-84
2021/12/27 03:01:22;;;;;;;41.15;31.98;;;-0.70;91.10;;;;;;6100800;23;21221;-84
2021/12/27 03:03:50;;;;;;;40.92;31.30;;;-0.80;91.00;;;;;;6102864;23;20439;-86
2021/12/27 03:06:18;;;;;;;42.17;33.03;;;-0.80;91.00;;;;;;6101457;23;20918;-82
2021/12/27 03:08:47;;;;;;;40.47;32.13;;;-0.80;90.90;;;;;;6127265;23;20387;-85
2021/12/27 03:11:15;;;;;;;40.47;32.75;;;-0.90;90.70;;;;;;6104470;23;20411;-86
2021/12/27 03:13:51;;;;;;;41.95;32.15;;;-0.90;90.80;;;;;;6101922;23;20403;-82
2021/12/27 03:16:20;;;;;;;40.42;31.52;;;-0.90;90.70;;;;;;6103700;23;20442;-83
2021/12/27 03:18:51;;;;;;;38.88;31.40;;;-0.90;90.60;;;;;;6102509;23;20375;-86
2021/12/27 03:21:19;;;;;;;41.03;30.60;;;-1.00;90.60;;;;;;6103790;23;20374;-86
2021/12/27 03:23:47;;;;;;;40.13;31.95;;;-1.00;90.80;;;;;;6130417;23;20406;-86
2021/12/27 03:26:14;;;;;;;37.47;30.60;;;-1.00;90.80;;;;;;6104478;23;20371;-82
2021/12/27 03:28:42;;;;;;;39.33;30.87;;;-1.00;90.70;;;;;;6106153;23;20879;-86
2021/12/27 03:31:10;;;;;;;39.78;31.60;;;-1.00;90.90;;;;;;6100026;23;20391;-86
2021/12/27 03:33:38;;;;;;;39.42;30.52;;;-1.00;91.30;;;;;;6102620;23;20403;-84
2021/12/27 03:36:06;;;;;;;40.85;31.80;;;-0.90;91.10;;;;;;6100005;23;20435;-83
2021/12/27 03:38:47;;;;;;;41.95;31.05;;;-0.90;91.00;;;;;;6130774;23;20376;-82
2021/12/27 03:41:20;;;;;;;40.40;31.70;;;-0.90;90.90;;;;;;6103172;23;20383;-85
2021/12/27 03:43:47;;;;;;;43.65;33.03;;;-0.90;91.00;;;;;;6101706;23;20401;-81
2021/12/27 03:46:15;;;;;;;42.05;32.92;;;-0.90;91.00;;;;;;6107844;23;20450;-81
2021/12/27 03:48:42;;;;;;;41.78;32.70;;;-0.90;91.00;;;;;;6100859;23;20407;-84
2021/12/27 03:51:09;;;;;;;45.38;36.17;;;-0.90;91.00;;;;;;6102766;23;20489;-81
2021/12/27 03:53:36;;;;;;;44.70;34.35;;;-0.90;91.20;;;;;;6101302;23;20383;-86
2021/12/27 03:56:04;;;;;;;42.67;34.07;;;-1.00;91.40;;;;;;6102960;23;20371;-83
2021/12/27 03:58:45;;;;;;;39.15;31.15;;;-1.00;91.20;;;;;;6103064;23;20387;-81
2021/12/27 04:01:16;;;;;;;39.60;32.42;;;-1.10;91.30;;;;;;6104741;23;20434;-80
2021/12/27 04:03:52;;;;;;;38.55;30.95;;;-1.10;91.30;;;;;;6103805;23;20411;-79
2021/12/27 04:06:20;;;;;;;41.10;33.35;;;-1.10;91.30;;;;;;6099429;23;20380;-84
2021/12/27 04:08:48;;;;;;;39.45;32.45;;;-1.00;91.40;;;;;;6101194;23;20383;-83
2021/12/27 04:11:15;;;;;;;48.83;37.20;;;-1.00;91.30;;;;;;6099817;23;20384;-83
2021/12/27 04:13:42;;;;;;;46.25;36.70;;;-1.00;92.10;;;;;;6100698;23;20745;-83
2021/12/27 04:16:10;;;;;;;47.75;38.55;;;-1.10;92.70;;;;;;6099185;23;20380;-80
2021/12/27 04:18:37;;;;;;;50.22;40.03;;;-1.10;92.90;;;;;;6102506;23;20380;-80
2021/12/27 04:21:04;;;;;;;44.92;35.38;;;-1.10;93.00;;;;;;6101637;23;20376;-83
2021/12/27 04:23:31;;;;;;;42.97;34.42;;;-1.00;93.00;;;;;;6126457;23;20745;-83
2021/12/27 04:25:58;;;;;;;40.73;33.50;;;-1.00;93.00;;;;;;6127389;23;20376;-81
2021/12/27 04:28:25;;;;;;;38.78;31.80;;;-0.90;92.90;;;;;;6102218;23;20391;-83
2021/12/27 04:30:52;;;;;;;37.92;30.80;;;-0.80;92.70;;;;;;6101589;23;20860;-83
2021/12/27 04:33:19;;;;;;;38.58;30.33;;;-0.80;92.40;;;;;;6098423;23;20383;-85
2021/12/27 04:35:46;;;;;;;35.42;29.08;;;-0.80;92.20;;;;;;6101813;23;20863;-84
2021/12/27 04:38:13;;;;;;;35.47;29.05;;;-0.70;92.10;;;;;;6100302;23;20853;-83
2021/12/27 04:40:43;;;;;;;35.05;28.27;;;-0.60;91.90;;;;;;6101158;23;20371;-84
2021/12/27 04:43:14;;;;;;;34.38;28.75;;;-0.60;91.70;;;;;;6102082;23;20403;-83
2021/12/27 04:45:42;;;;;;;34.25;27.55;;;-0.60;91.80;;;;;;6100684;23;20729;-80
2021/12/27 04:48:10;;;;;;;32.88;26.13;;;-0.60;91.70;;;;;;6129519;23;20404;-80
2021/12/27 04:50:38;;;;;;;34.30;26.75;;;-0.60;91.60;;;;;;6128635;23;20741;-83
2021/12/27 04:53:06;;;;;;;32.78;26.05;;;-0.60;91.80;;;;;;6100683;23;20388;-85
2021/12/27 04:55:34;;;;;;;31.38;25.42;;;-0.60;91.80;;;;;;6103787;23;20390;-83
2021/12/27 04:58:08;;;;;;;31.47;25.30;;;-0.60;91.80;;;;;;6127285;23;20379;-82
2021/12/27 05:00:37;;;;;;;34.63;26.38;;;-0.60;91.80;;;;;;6102139;23;20371;-82
2021/12/27 05:03:04;;;;;;;34.05;28.13;;;-0.60;91.90;;;;;;6102548;23;20872;-81
2021/12/27 05:05:31;;;;;;;31.75;25.23;;;-0.60;91.90;;;;;;6104400;23;20805;-84
2021/12/27 05:08:00;;;;;;;26.35;20.98;;;-0.50;92.20;;;;;;6102428;23;20388;-81
2021/12/27 05:10:28;;;;;;;26.33;20.80;;;-0.40;92.50;;;;;;6102503;23;20390;-84
2021/12/27 05:12:55;;;;;;;25.40;20.15;;;-0.30;92.30;;;;;;6102618;23;20883;-80
2021/12/27 05:15:23;;;;;;;24.83;21.00;;;-0.20;92.40;;;;;;6100352;23;20388;-85
2021/12/27 05:17:50;;;;;;;30.27;23.57;;;-0.10;92.30;;;;;;6100805;23;20376;-83
2021/12/27 05:20:17;;;;;;;30.17;23.05;;;-0.10;92.20;;;;;;6099614;23;20750;-83
2021/12/27 05:22:44;;;;;;;31.17;25.63;;;-0.10;92.20;;;;;;6100661;23;20372;-80
2021/12/27 05:25:12;;;;;;;30.45;24.63;;;0.00;92.20;;;;;;6102412;23;20927;-85
2021/12/27 05:27:40;;;;;;;31.95;25.85;;;-0.10;92.30;;;;;;6126297;23;20368;-83
2021/12/27 05:30:17;;;;;;;31.50;26.25;;;0.00;92.40;;;;;;6097922;23;20396;-83
2021/12/27 05:32:44;;;;;;;30.85;24.83;;;0.00;92.50;;;;;;6096012;23;20381;-83
2021/12/27 05:35:13;;;;;;;31.90;25.92;;;0.10;92.40;;;;;;6073200;23;20401;-84
2021/12/27 05:37:41;;;;;;;31.98;26.08;;;0.10;92.40;;;;;;6073100;23;20370;-83
2021/12/27 05:40:16;;;;;;;29.48;25.25;;;0.10;92.40;;;;;;6073492;23;20385;-83
2021/12/27 05:42:44;;;;;;;32.17;25.98;;;0.20;92.30;;;;;;6072170;23;20972;-80
2021/12/27 05:45:11;;;;;;;37.03;29.75;;;0.20;92.50;;;;;;6070664;23;20441;-83
2021/12/27 05:47:38;;;;;;;34.30;27.58;;;0.10;92.80;;;;;;6097069;23;20861;-85
2021/12/27 05:50:07;;;;;;;15.90;13.93;;;0.10;92.90;;;;;;6073111;23;20452;-81
2021/12/27 05:52:35;;;;;;;13.10;11.45;;;0.50;93.60;;;;;;6072380;23;20386;-82
2021/12/27 05:55:04;;;;;;;12.15;9.77;;;0.70;93.00;;;;;;6049227;23;20431;-83
2021/12/27 05:57:31;;;;;;;12.15;9.88;;;1.00;92.80;;;;;;6071284;23;20377;-82
2021/12/27 05:59:58;;;;;;;14.52;10.93;;;1.30;92.50;;;;;;6081136;23;20382;-82
2021/12/27 06:02:25;;;;;;;15.57;11.77;;;1.40;92.20;;;;;;6072858;23;20854;-82
2021/12/27 06:04:53;;;;;;;14.88;11.77;;;1.50;92.10;;;;;;6076382;23;20381;-82
2021/12/27 06:07:20;;;;;;;21.20;17.67;;;1.50;91.90;;;;;;6075549;23;20378;-81
2021/12/27 06:09:48;;;;;;;19.90;16.02;;;1.50;91.90;;;;;;6073174;23;20412;-82
2021/12/27 06:12:16;;;;;;;21.00;17.27;;;1.40;91.90;;;;;;6069984;23;20515;-83
2021/12/27 06:14:43;;;;;;;23.60;18.42;;;1.40;92.00;;;;;;6070264;23;20377;-83
2021/12/27 06:17:10;;;;;;;21.40;17.55;;;1.40;92.00;;;;;;6077102;23;20696;-82
2021/12/27 06:19:37;;;;;;;21.23;16.88;;;1.30;92.00;;;;;;6072499;23;20378;-82
2021/12/27 06:22:04;;;;;;;21.10;17.17;;;1.30;92.00;;;;;;6073799;23;20412;-83
2021/12/27 06:24:32;;;;;;;12.15;9.52;;;1.30;92.00;;;;;;6075676;23;20392;-83
2021/12/27 06:26:59;;;;;;;13.43;9.85;;;1.60;92.10;;;;;;6073279;23;20401;-83
2021/12/27 06:29:26;;;;;;;12.23;9.52;;;1.80;91.90;;;;;;6068483;23;20393;-82
2021/12/27 06:31:53;;;;;;;11.90;8.50;;;2.00;91.50;;;;;;6098451;23;20394;-82
2021/12/27 06:34:20;;;;;;;12.02;8.63;;;2.20;91.10;;;;;;6072273;23;20382;-82
2021/12/27 06:36:47;;;;;;;9.75;8.18;;;2.30;90.80;;;;;;6071350;23;20841;-82
2021/12/27 06:39:14;;;;;;;11.27;8.27;;;2.40;90.50;;;;;;6096198;23;20381;-82
2021/12/27 06:41:41;;;;;;;11.20;8.52;;;2.50;90.20;;;;;;6072105;23;20381;-82
2021/12/27 06:44:08;;;;;;;10.38;8.13;;;2.70;90.00;;;;;;6073059;23;20388;-85
2021/12/27 06:46:35;;;;;;;9.75;7.60;;;2.80;89.60;;;;;;6076299;23;20392;-81
2021/12/27 06:49:03;;;;;;;10.85;8.18;;;2.80;89.30;;;;;;6077623;23;20372;-81
2021/12/27 06:51:30;;;;;;;13.40;10.18;;;2.80;89.40;;;;;;6074705;23;20377;-82
2021/12/27 06:53:57;;;;;;;11.75;9.38;;;2.80;89.00;;;;;;6069140;23;20684;-86
2021/12/27 06:56:24;;;;;;;14.02;11.10;;;2.80;89.10;;;;;;6068209;23;20465;-82
2021/12/27 06:58:51;;;;;;;24.63;20.47;;;2.80;89.10;;;;;;6074721;23;20468;-82
2021/12/27 07:01:18;;;;;;;25.25;21.90;;;2.50;87.90;;;;;;6074710;23;20393;-82
2021/12/27 07:03:45;;;;;;;27.80;23.27;;;2.40;89.10;;;;;;6072408;23;20367;-85
2021/12/27 07:06:12;;;;;;;29.67;24.50;;;2.20;89.60;;;;;;6094555;23;20385;-83
2021/12/27 07:08:39;;;;;;;31.47;24.33;;;2.00;89.90;;;;;;6073371;23;20382;-85
2021/12/27 07:11:08;;;;;;;29.00;24.20;;;1.90;90.30;;;;;;6074811;23;20377;-83
2021/12/27 07:13:35;;;;;;;31.00;24.83;;;1.90;90.40;;;;;;6075673;23;20385;-82
2021/12/27 07:16:02;;;;;;;30.40;24.65;;;1.80;90.40;;;;;;6091198;23;20384;-82
2021/12/27 07:18:29;;;;;;;30.13;25.45;;;1.80;90.40;;;;;;6077594;23;20383;-83
2021/12/27 07:20:56;;;;;;;30.63;26.20;;;1.80;90.50;;;;;;6068674;23;20375;-82
2021/12/27 07:23:23;;;;;;;30.33;24.30;;;1.70;90.60;;;;;;6074632;23;20361;-82
2021/12/27 07:25:50;;;;;;;30.08;24.85;;;1.70;90.70;;;;;;6097689;23;20675;-82
2021/12/27 07:28:18;;;;;;;31.42;26.40;;;1.70;90.90;;;;;;6084633;23;20887;-85
2021/12/27 07:30:45;;;;;;;31.63;26.42;;;1.70;90.90;;;;;;6082504;23;20380;-83
2021/12/27 07:33:12;;;;;;;30.75;25.58;;;1.70;90.90;;;;;;6105850;23;20376;-82
2021/12/27 07:35:40;;;;;;;34.63;27.88;;;1.70;90.90;;;;;;6103397;23;20411;-82
2021/12/27 07:38:07;;;;;;;29.57;24.70;;;1.70;91.10;;;;;;6099385;23;20394;-84
2021/12/27 07:40:34;;;;;;;29.95;25.23;;;1.70;91.10;;;;;;6101689;23;20396;-82
2021/12/27 07:43:01;;;;;;;31.50;26.00;;;1.70;91.00;;;;;;6103585;23;20367;-83
2021/12/27 07:45:29;;;;;;;32.63;27.48;;;1.70;91.00;;;;;;6098449;23;20384;-82
2021/12/27 07:47:57;;;;;;;32.92;26.65;;;1.70;91.00;;;;;;6127117;23;21049;-82
2021/12/27 07:50:24;;;;;;;30.60;26.42;;;1.70;91.00;;;;;;6102784;23;20388;-82
2021/12/27 07:52:52;;;;;;;33.63;27.15;;;1.70;91.00;;;;;;6096994;23;20465;-82
2021/12/27 07:55:19;;;;;;;33.92;28.65;;;1.70;91.00;;;;;;6097740;23;20391;-82
2021/12/27 07:57:46;;;;;;;33.25;26.63;;;1.70;91.20;;;;;;6096870;23;20379;-82
2021/12/27 08:00:14;;;;;;;33.33;27.42;;;1.70;91.30;;;;;;6101098;23;20380;-82
2021/12/27 08:02:41;;;;;;;31.35;26.55;;;1.70;91.30;;;;;;6107331;23;20376;-83
2021/12/27 08:05:09;;;;;;;33.07;27.23;;;1.70;91.40;;;;;;6106142;23;20379;-85
2021/12/27 08:07:36;;;;;;;30.33;25.65;;;1.80;91.30;;;;;;6124035;23;20383;-81
2021/12/27 08:10:04;;;;;;;31.75;26.58;;;1.80;91.30;;;;;;6102422;23;20378;-84
2021/12/27 08:12:31;;;;;;;31.50;26.90;;;1.80;91.20;;;;;;6113322;23;20929;-82
2021/12/27 08:14:58;;;;;;;31.27;25.85;;;1.90;91.20;;;;;;6102480;23;20368;-84
2021/12/27 08:17:25;;;;;;;30.77;26.00;;;1.80;91.30;;;;;;6103628;23;20395;-81
2021/12/27 08:19:53;;;;;;;32.08;26.58;;;1.90;91.20;;;;;;6103291;23;20375;-82
2021/12/27 08:22:20;;;;;;;32.38;26.48;;;1.90;91.20;;;;;;6102484;23;20431;-81
2021/12/27 08:24:49;;;;;;;17.90;14.65;;;1.90;91.70;;;;;;6107625;23;20399;-81
2021/12/27 08:27:18;;;;;;;11.60;8.85;;;2.10;91.10;;;;;;6106789;23;20895;-81
2021/12/27 08:29:45;;;;;;;12.25;9.55;;;2.30;90.80;;;;;;6104427;23;20376;-82
2021/12/27 08:32:12;;;;;;;11.02;8.75;;;2.60;90.20;;;;;;6084528;23;20359;-84
2021/12/27 08:34:39;;;;;;;11.48;8.25;;;2.90;89.40;;;;;;6069852;23;20382;-84
2021/12/27 09:58:45;;;;;;;21.27;16.52;;;3.40;89.40;;;;;;6087301;23;20371;31
2021/12/27 12:19:10;;;;;;;38.45;34.22;;;6.40;85.40;;;;;;6099908;23;20386;-83
2021/12/27 12:21:43;;;;;;;40.03;32.10;;;6.20;86.20;;;;;;6103867;23;20754;-87
2021/12/27 12:24:22;;;;;;;35.72;30.08;;;6.20;86.30;;;;;;6078337;23;20378;-84
2021/12/27 12:26:57;;;;;;;32.63;28.10;;;6.20;86.30;;;;;;6073075;23;20385;-81
2021/12/27 12:29:39;;;;;;;36.28;30.52;;;6.20;86.50;;;;;;6071440;23;20858;-84
2021/12/27 12:32:09;;;;;;;36.03;31.13;;;6.10;86.80;;;;;;6068869;23;20385;-85
2021/12/27 12:34:39;;;;;;;38.45;31.90;;;6.20;86.90;;;;;;6076039;23;20377;-84
2021/12/27 12:37:14;;;;;;;37.00;32.88;;;6.10;87.40;;;;;;6069630;23;20377;-84
2021/12/27 12:39:52;;;;;;;38.55;33.28;;;6.10;87.10;;;;;;6046811;23;20377;-83
2021/12/27 12:42:24;;;;;;;39.33;34.70;;;6.10;87.40;;;;;;6070054;23;20987;-86
2021/12/27 12:45:01;;;;;;;36.95;32.67;;;6.00;87.30;;;;;;6077781;23;20384;-82
2021/12/27 12:47:51;;;;;;;37.95;33.78;;;6.00;87.30;;;;;;6083360;23;20380;-81
2021/12/27 12:50:21;;;;;;;39.83;33.60;;;5.90;87.10;;;;;;6068445;23;20437;-84
2021/12/27 12:53:00;;;;;;;37.53;32.38;;;5.90;86.80;;;;;;6070084;23;20385;-84
2021/12/27 13:44:34;;;;;;;38.95;31.38;;;5.70;88.00;;;;;;6088443;23;20364;31
2021/12/27 13:47:07;;;;;;;37.00;31.48;;;5.60;88.10;;;;;;6017445;23;20412;-87
2021/12/27 21:46:56;;;;;;;70.88;55.78;;;3.30;92.60;;;;;;6093446;23;20397;-80
2021/12/27 21:49:23;;;;;;;74.13;55.03;;;3.30;92.60;;;;;;6068997;23;20385;-80
2021/12/27 21:51:54;;;;;;;82.87;63.10;;;3.30;92.60;;;;;;6094515;23;20503;-80
2021/12/27 21:54:21;;;;;;;71.03;53.58;;;3.30;92.60;;;;;;6069527;23;20854;-79
2021/12/27 21:56:49;;;;;;;70.32;52.63;;;3.30;92.50;;;;;;6068226;23;20378;-78
2021/12/27 21:59:16;;;;;;;70.07;53.33;;;3.30;92.60;;;;;;6070185;23;20710;-78
2021/12/27 22:01:43;;;;;;;69.80;51.92;;;3.30;92.60;;;;;;6093806;23;20874;-78
2021/12/27 22:04:10;;;;;;;68.88;50.22;;;3.30;92.50;;;;;;6068726;23;20382;-80
2021/12/27 22:06:37;;;;;;;81.32;59.40;;;3.20;92.50;;;;;;6070494;23;20408;-77
2021/12/27 22:09:04;;;;;;;81.77;58.97;;;3.10;92.60;;;;;;6068976;23;20429;-79
2021/12/27 22:11:31;;;;;;;66.72;50.45;;;3.10;92.70;;;;;;6070546;23;20874;-79
2021/12/27 22:14:00;;;;;;;62.72;48.67;;;3.00;92.80;;;;;;6069101;23;20751;-77
2021/12/27 22:16:27;;;;;;;64.68;48.58;;;3.10;92.80;;;;;;6069993;23;20401;-80
2021/12/27 22:18:54;;;;;;;65.55;48.85;;;3.10;92.70;;;;;;6094438;23;20392;-81
2021/12/27 22:21:21;;;;;;;65.07;49.25;;;3.10;92.70;;;;;;6070128;23;20400;-79
2021/12/27 22:23:48;;;;;;;66.85;50.80;;;3.10;92.70;;;;;;6070307;23;20460;-78
2021/12/27 22:26:15;;;;;;;73.80;56.43;;;3.10;92.60;;;;;;6094388;23;21034;-79
2021/12/27 22:28:42;;;;;;;84.45;61.75;;;3.10;92.70;;;;;;6069895;23;20444;-78
2021/12/27 22:31:09;;;;;;;63.33;50.03;;;3.10;92.80;;;;;;6069078;23;20452;-78
2021/12/27 22:33:36;;;;;;;69.22;52.40;;;3.10;92.90;;;;;;6069433;23;20452;-81
2021/12/27 22:36:05;;;;;;;68.50;54.10;;;3.10;92.90;;;;;;6069100;23;20389;-78
2021/12/27 22:38:32;;;;;;;72.25;55.33;;;3.20;92.80;;;;;;6094822;23;20464;-79
2021/12/27 22:41:00;;;;;;;73.00;55.20;;;3.20;92.80;;;;;;6094168;23;20714;-79
2021/12/27 22:43:27;;;;;;;76.53;58.03;;;3.20;92.70;;;;;;6093111;23;20395;-78
2021/12/27 22:45:54;;;;;;;79.55;59.60;;;3.30;92.70;;;;;;6077537;23;20443;-78
2021/12/27 22:48:21;;;;;;;81.65;60.15;;;3.30;92.70;;;;;;6098253;23;20852;-79
2021/12/27 22:50:54;;;;;;;83.53;59.83;;;3.30;92.70;;;;;;6098330;23;20383;-80
2021/12/27 22:53:22;;;;;;;93.43;66.28;;;3.30;92.70;;;;;;6097483;23;20376;-79
2021/12/27 22:55:50;;;;;;;94.57;67.63;;;3.30;92.70;;;;;;6098228;23;20387;-79
2021/12/27 22:58:18;;;;;;;88.28;64.00;;;3.30;92.80;;;;;;6097858;23;20375;-78
2021/12/27 23:00:50;;;;;;;87.00;63.45;;;3.30;92.70;;;;;;6098659;23;20391;-79
2021/12/27 23:03:18;;;;;;;80.63;58.83;;;3.30;92.70;;;;;;6097802;23;20456;-78
2021/12/27 23:05:45;;;;;;;77.60;57.78;;;3.40;92.70;;;;;;6097049;23;20702;-77
2021/12/27 23:08:14;;;;;;;77.32;56.58;;;3.40;92.70;;;;;;6097078;23;20386;-79
2021/12/27 23:10:42;;;;;;;72.75;54.85;;;3.40;92.70;;;;;;6099462;23;20380;-78
2021/12/27 23:13:09;;;;;;;78.05;57.80;;;3.30;92.60;;;;;;6097298;23;20441;-81
2021/12/27 23:15:36;;;;;;;87.80;66.13;;;3.30;92.60;;;;;;6098063;23;20395;-79
2021/12/27 23:18:04;;;;;;;77.43;57.65;;;3.30;92.60;;;;;;6098122;23;20781;-78
2021/12/27 23:20:32;;;;;;;69.53;54.83;;;3.20;92.70;;;;;;6100462;23;20375;-78
2021/12/27 23:23:00;;;;;;;82.63;60.83;;;3.20;92.70;;;;;;6098737;23;20383;-78
2021/12/27 23:25:27;;;;;;;74.30;58.05;;;3.10;92.60;;;;;;6099453;23;20375;-78
2021/12/27 23:27:58;;;;;;;67.45;51.80;;;3.10;92.70;;;;;;6098292;23;20430;-81
2021/12/27 23:30:30;;;;;;;70.50;52.22;;;3.10;92.70;;;;;;6097579;23;20380;-79
2021/12/27 23:33:05;;;;;;;69.72;53.85;;;3.00;92.50;;;;;;6097464;23;20375;-81
2021/12/27 23:35:37;;;;;;;66.85;51.85;;;3.00;92.40;;;;;;6097010;23;20884;-78
2021/12/27 23:38:04;;;;;;;86.25;63.42;;;3.00;92.40;;;;;;6098098;23;20383;-79
2021/12/27 23:40:31;;;;;;;91.20;56.55;;;2.80;92.30;;;;;;6097892;23;20867;-81
2021/12/27 23:42:58;;;;;;;62.90;49.38;;;2.60;92.70;;;;;;6098685;23;20376;-78
2021/12/27 23:45:25;;;;;;;66.57;51.60;;;2.60;92.70;;;;;;6094744;23;20698;-79
2021/12/27 23:47:53;;;;;;;62.50;49.17;;;2.60;92.80;;;;;;6070376;23;20385;-77
2021/12/27 23:50:21;;;;;;;72.70;55.45;;;2.60;92.90;;;;;;6069287;23;20385;-79
2021/12/27 23:52:50;;;;;;;71.47;55.07;;;2.70;93.20;;;;;;6071548;23;20440;-79
2021/12/27 23:55:18;;;;;;;89.03;68.05;;;2.80;93.10;;;;;;6071023;23;20408;-80
2021/12/27 23:57:53;;;;;;;76.18;59.58;;;2.80;93.10;;;;;;6073002;23;25095;-78
